createdAt,value
2018-10-16T00:00:14.383Z,13.17
2018-10-16T00:02:43.786Z,11.87
2018-10-16T00:05:12.444Z,15.83
2018-10-16T00:07:40.975Z,13.87
2018-10-16T00:10:10.307Z,12.30
2018-10-16T00:12:39.258Z,10.70
2018-10-16T00:15:08.644Z,12.43
2018-10-16T00:17:37.398Z,15.73
2018-10-16T00:20:06.527Z,11.77
2018-10-16T00:22:35.361Z,13.23
2018-10-16T00:25:04.120Z,12.20
2018-10-16T00:27:33.011Z,13.60
2018-10-16T00:30:01.886Z,14.90
2018-10-16T00:32:30.592Z,12.13
2018-10-16T00:34:59.070Z,10.87
2018-10-16T00:37:27.605Z,14.23
2018-10-16T00:39:56.131Z,12.53
2018-10-16T00:42:24.946Z,12.43
2018-10-16T00:44:53.787Z,13.13
2018-10-16T00:47:22.446Z,14.87
2018-10-16T00:49:51.200Z,14.27
2018-10-16T00:52:19.870Z,14.57
2018-10-16T00:54:48.446Z,13.43
2018-10-16T00:57:17.250Z,12.20
2018-10-16T00:59:45.998Z,15.93
2018-10-16T01:02:14.660Z,14.77
2018-10-16T01:04:43.418Z,14.80
2018-10-16T01:07:12.330Z,11.83
2018-10-16T01:09:40.994Z,16.37
2018-10-16T01:12:09.758Z,14.13
2018-10-16T01:14:38.656Z,17.10
2018-10-16T01:17:07.314Z,16.23
2018-10-16T01:19:35.878Z,16.13
2018-10-16T01:22:04.726Z,15.30
2018-10-16T01:24:33.615Z,18.30
2018-10-16T01:27:02.297Z,14.70
2018-10-16T01:29:30.814Z,13.90
2018-10-16T01:31:59.378Z,17.20
2018-10-16T01:34:27.918Z,14.30
2018-10-16T01:36:56.451Z,17.93
2018-10-16T01:39:25.223Z,15.63
2018-10-16T01:41:53.878Z,17.87
2018-10-16T01:44:22.674Z,14.83
2018-10-16T01:46:51.598Z,18.00
2018-10-16T01:49:20.476Z,15.83
2018-10-16T01:51:49.219Z,17.47
2018-10-16T01:54:17.921Z,17.67
2018-10-16T01:56:46.678Z,14.97
2018-10-16T01:59:15.561Z,15.87
2018-10-16T02:01:44.284Z,15.37
2018-10-16T02:04:12.970Z,17.07
2018-10-16T02:06:41.529Z,18.73
2018-10-16T02:09:11.662Z,16.10
2018-10-16T02:11:40.626Z,15.00
2018-10-16T02:14:09.471Z,18.80
2018-10-16T02:16:37.994Z,16.43
2018-10-16T02:19:06.750Z,17.93
2018-10-16T02:21:35.451Z,17.33
2018-10-16T02:24:03.986Z,17.27
2018-10-16T02:26:32.815Z,16.17
2018-10-16T02:29:01.756Z,17.33
2018-10-16T02:31:30.640Z,19.20
2018-10-16T02:33:59.294Z,15.23
2018-10-16T02:36:27.842Z,19.53
2018-10-16T02:38:56.602Z,17.37
2018-10-16T02:41:25.515Z,14.30
2018-10-16T02:43:54.406Z,18.10
2018-10-16T02:46:23.069Z,16.93
2018-10-16T02:48:51.826Z,19.17
2018-10-16T02:51:20.469Z,16.80
2018-10-16T02:53:49.267Z,16.43
2018-10-16T02:56:17.897Z,17.90
2018-10-16T02:58:46.447Z,22.87
2018-10-16T03:01:15.233Z,20.53
2018-10-16T03:03:44.093Z,16.53
2018-10-16T03:06:12.988Z,15.70
2018-10-16T03:08:41.927Z,16.60
2018-10-16T03:11:10.854Z,16.60
2018-10-16T03:13:39.694Z,15.23
2018-10-16T03:16:08.366Z,16.43
2018-10-16T03:18:36.895Z,17.77
2018-10-16T03:21:05.474Z,16.00
2018-10-16T03:23:33.973Z,14.97
2018-10-16T03:26:03.094Z,17.47
2018-10-16T03:28:31.955Z,19.63
2018-10-16T03:31:00.850Z,19.57
2018-10-16T03:33:30.167Z,20.37
2018-10-16T03:35:59.943Z,17.47
2018-10-16T03:38:28.859Z,21.00
2018-10-16T03:40:57.751Z,17.93
2018-10-16T03:43:26.406Z,19.17
2018-10-16T03:45:54.954Z,20.47
2018-10-16T03:48:23.724Z,20.93
2018-10-16T03:50:52.718Z,17.77
2018-10-16T03:53:21.366Z,21.13
2018-10-16T03:55:49.907Z,21.73
2018-10-16T03:58:18.434Z,17.27
2018-10-16T04:00:47.728Z,16.70
2018-10-16T04:03:16.611Z,17.27
2018-10-16T04:05:45.261Z,16.57
2018-10-16T04:08:13.786Z,19.60
2018-10-16T04:10:42.563Z,14.70
2018-10-16T04:13:11.838Z,20.60
2018-10-16T04:15:40.604Z,20.03
2018-10-16T04:18:09.522Z,21.13
2018-10-16T04:20:38.146Z,17.80
2018-10-16T04:23:06.896Z,24.03
2018-10-16T04:25:35.599Z,15.87
2018-10-16T04:28:04.418Z,19.27
2018-10-16T04:30:34.886Z,16.00
2018-10-16T04:33:03.546Z,16.60
2018-10-16T04:35:32.074Z,20.63
2018-10-16T04:38:00.866Z,18.87
2018-10-16T04:40:29.578Z,20.70
2018-10-16T04:42:58.086Z,19.40
2018-10-16T04:45:26.895Z,19.50
2018-10-16T04:47:55.782Z,16.50
2018-10-16T04:50:24.694Z,20.70
2018-10-16T04:52:53.390Z,18.57
2018-10-16T04:55:21.918Z,16.13
2018-10-16T04:57:50.501Z,18.93
2018-10-16T05:00:20.170Z,16.30
2018-10-16T05:02:49.070Z,16.63
2018-10-16T05:05:20.588Z,17.33
2018-10-16T05:07:50.050Z,17.80
2018-10-16T05:10:19.231Z,15.70
2018-10-16T05:12:47.878Z,18.70
2018-10-16T05:15:38.849Z,20.13
2018-10-16T05:18:07.497Z,18.87
2018-10-16T05:20:36.279Z,16.67
2018-10-16T05:23:05.311Z,19.13
2018-10-16T05:25:33.955Z,18.23
2018-10-16T05:28:02.521Z,19.10
2018-10-16T05:30:32.081Z,18.33
2018-10-16T05:33:00.982Z,22.87
2018-10-16T05:35:29.638Z,17.70
2018-10-16T05:37:58.178Z,16.03
2018-10-16T05:40:26.992Z,17.13
2018-10-16T05:42:55.891Z,21.80
2018-10-16T05:45:25.623Z,17.20
2018-10-16T05:47:54.278Z,16.63
2018-10-16T05:50:22.806Z,19.67
2018-10-16T05:52:51.595Z,18.87
2018-10-16T05:55:20.256Z,22.03
2018-10-16T05:57:48.902Z,20.53
2018-10-16T06:00:23.071Z,23.77
2018-10-16T06:02:52.314Z,18.07
2018-10-16T06:05:21.209Z,20.20
2018-10-16T06:07:50.098Z,21.50
2018-10-16T06:10:18.979Z,20.67
2018-10-16T06:12:47.639Z,15.67
2018-10-16T06:15:16.170Z,15.50
2018-10-16T06:17:45.020Z,17.87
2018-10-16T06:20:13.671Z,18.10
2018-10-16T06:22:42.834Z,21.30
2018-10-16T06:25:11.457Z,16.27
2018-10-16T06:27:41.709Z,14.83
2018-10-16T06:30:10.748Z,15.77
2018-10-16T06:32:39.887Z,16.63
2018-10-16T06:35:08.873Z,16.63
2018-10-16T06:37:37.435Z,18.57
2018-10-16T06:40:07.101Z,16.10
2018-10-16T06:42:36.334Z,19.77
2018-10-16T06:45:06.829Z,18.40
2018-10-16T06:47:35.617Z,19.60
2018-10-16T06:50:04.662Z,16.37
2018-10-16T06:52:33.229Z,18.23
2018-10-16T06:55:02.683Z,18.57
2018-10-16T06:57:31.527Z,17.40
2018-10-16T07:00:00.208Z,17.30
2018-10-16T07:02:28.770Z,19.73
2018-10-16T07:04:57.587Z,17.70
2018-10-16T07:07:26.318Z,16.37
2018-10-16T07:09:55.071Z,20.03
2018-10-16T07:12:23.792Z,21.30
2018-10-16T07:14:52.355Z,19.10
2018-10-16T07:17:21.703Z,20.17
2018-10-16T07:19:50.380Z,18.67
2018-10-16T07:22:18.934Z,21.50
2018-10-16T07:24:47.493Z,18.83
2018-10-16T07:27:16.034Z,22.27
2018-10-16T07:29:44.604Z,20.37
2018-10-16T07:32:13.364Z,20.63
2018-10-16T07:34:42.258Z,22.17
2018-10-16T07:37:11.170Z,21.87
2018-10-16T07:39:39.857Z,21.17
2018-10-16T07:42:08.385Z,18.00
2018-10-16T07:44:37.203Z,18.63
2018-10-16T07:47:06.357Z,18.97
2018-10-16T07:49:35.315Z,17.87
2018-10-16T07:52:04.130Z,22.23
2018-10-16T07:54:32.677Z,14.50
2018-10-16T07:57:01.545Z,18.40
2018-10-16T07:59:30.128Z,17.07
2018-10-16T08:01:58.663Z,15.57
2018-10-16T08:04:27.204Z,18.40
2018-10-16T08:06:55.967Z,19.90
2018-10-16T08:09:24.636Z,15.10
2018-10-16T08:11:53.254Z,14.87
2018-10-16T08:14:23.247Z,21.87
2018-10-16T08:16:52.172Z,19.00
2018-10-16T08:19:21.079Z,15.87
2018-10-16T08:21:49.750Z,14.93
2018-10-16T08:24:18.301Z,15.70
2018-10-16T08:26:47.464Z,16.37
2018-10-16T08:29:16.166Z,17.57
2018-10-16T08:31:44.682Z,19.23
2018-10-16T08:34:13.303Z,18.67
2018-10-16T08:36:41.799Z,15.13
2018-10-16T08:39:28.929Z,14.93
2018-10-16T08:42:16.997Z,14.20
2018-10-16T08:45:26.010Z,13.67
2018-10-16T08:48:00.310Z,15.43
2018-10-16T08:50:35.725Z,15.37
2018-10-16T08:53:04.294Z,15.43
2018-10-16T08:55:33.407Z,18.27
2018-10-16T08:58:02.947Z,14.13
2018-10-16T09:00:32.094Z,13.93
2018-10-16T09:03:01.078Z,17.17
2018-10-16T09:05:30.179Z,14.87
2018-10-16T09:07:58.703Z,16.63
2018-10-16T09:10:27.739Z,14.67
2018-10-16T09:12:56.261Z,15.70
2018-10-16T09:15:25.245Z,14.37
2018-10-16T09:17:53.886Z,12.07
2018-10-16T09:20:22.638Z,12.83
2018-10-16T09:22:52.541Z,13.00
2018-10-16T09:25:21.416Z,11.10
2018-10-16T09:27:50.299Z,15.70
2018-10-16T09:30:18.969Z,16.60
2018-10-16T09:32:47.724Z,14.20
2018-10-16T09:35:16.656Z,12.20
2018-10-16T09:37:45.564Z,14.73
2018-10-16T09:40:14.177Z,15.77
2018-10-16T09:42:42.966Z,14.47
2018-10-16T09:45:11.890Z,12.77
2018-10-16T09:47:40.755Z,14.50
2018-10-16T09:50:10.234Z,17.23
2018-10-16T09:52:39.138Z,16.20
2018-10-16T09:55:09.058Z,14.33
2018-10-16T09:57:38.042Z,11.60
2018-10-16T10:00:13.859Z,13.47
2018-10-16T10:02:42.757Z,13.20
2018-10-16T10:05:11.643Z,14.37
2018-10-16T10:07:40.521Z,15.73
2018-10-16T10:10:09.751Z,15.27
2018-10-16T10:12:38.891Z,18.23
2018-10-16T10:15:07.803Z,12.07
2018-10-16T10:17:36.966Z,13.97
2018-10-16T10:20:06.483Z,10.43
2018-10-16T10:22:35.416Z,17.73
2018-10-16T10:25:04.473Z,12.10
2018-10-16T10:27:33.318Z,15.33
2018-10-16T10:30:02.634Z,14.00
2018-10-16T10:32:32.011Z,13.87
2018-10-16T10:35:00.896Z,13.57
2018-10-16T10:37:29.562Z,12.90
2018-10-16T10:39:58.330Z,15.23
2018-10-16T10:42:27.345Z,11.67
2018-10-16T10:44:56.224Z,12.27
2018-10-16T10:47:25.119Z,15.20
2018-10-16T10:49:54.085Z,16.13
2018-10-16T10:52:22.949Z,10.37
2018-10-16T10:54:51.851Z,15.07
2018-10-16T10:57:20.779Z,15.17
2018-10-16T10:59:49.664Z,14.97
2018-10-16T11:02:18.650Z,15.07
2018-10-16T11:04:47.539Z,12.27
2018-10-16T11:07:16.569Z,18.67
2018-10-16T11:09:45.322Z,12.63
2018-10-16T11:12:14.229Z,12.33
2018-10-16T11:14:43.115Z,12.23
2018-10-16T11:17:12.006Z,13.50
2018-10-16T11:19:40.890Z,13.17
2018-10-16T11:22:09.790Z,14.77
2018-10-16T11:24:38.682Z,14.13
2018-10-16T11:27:07.668Z,13.93
2018-10-16T11:29:36.548Z,15.03
2018-10-16T11:32:05.443Z,13.83
2018-10-16T11:34:34.359Z,11.97
2018-10-16T11:37:03.309Z,14.20
2018-10-16T11:39:32.122Z,12.13
2018-10-16T11:42:01.561Z,16.83
2018-10-16T11:44:30.482Z,15.23
2018-10-16T11:46:59.347Z,18.60
2018-10-16T11:49:28.227Z,15.53
2018-10-16T11:51:57.145Z,14.93
2018-10-16T11:54:26.627Z,13.77
2018-10-16T11:56:55.542Z,11.47
2018-10-16T11:59:24.491Z,12.90
2018-10-16T12:01:53.401Z,13.70
2018-10-16T12:04:22.289Z,18.20
2018-10-16T12:06:51.238Z,16.37
2018-10-16T12:09:20.111Z,12.10
2018-10-16T12:11:50.875Z,11.90
2018-10-16T12:14:20.147Z,15.70
2018-10-16T12:16:53.339Z,14.40
2018-10-16T12:19:32.439Z,15.33
2018-10-16T12:22:01.572Z,15.37
2018-10-16T12:24:30.459Z,15.23
2018-10-16T12:26:59.443Z,12.13
2018-10-16T12:29:28.286Z,17.63
2018-10-16T12:31:57.167Z,12.73
2018-10-16T12:34:26.114Z,12.77
2018-10-16T12:36:55.033Z,12.27
2018-10-16T12:39:24.014Z,12.63
2018-10-16T12:41:52.895Z,13.73
2018-10-16T12:44:21.804Z,19.83
2018-10-16T12:46:50.699Z,13.73
2018-10-16T12:49:19.583Z,9.07
2018-10-16T12:51:48.478Z,11.47
2018-10-16T12:54:17.390Z,12.90
2018-10-16T12:56:46.515Z,10.73
2018-10-16T12:59:15.622Z,12.70
2018-10-16T13:01:44.445Z,10.43
2018-10-16T13:04:13.350Z,12.17
2018-10-16T13:06:42.471Z,12.60
2018-10-16T13:09:12.266Z,8.50
2018-10-16T13:11:42.014Z,9.47
2018-10-16T13:14:10.990Z,9.90
2018-10-16T13:16:40.115Z,11.17
2018-10-16T13:19:08.999Z,10.03
2018-10-16T13:21:37.887Z,8.60
2018-10-16T13:24:06.840Z,7.80
2018-10-16T13:26:35.691Z,9.80
2018-10-16T13:29:04.837Z,7.57
2018-10-16T13:31:33.662Z,10.83
2018-10-16T13:34:02.589Z,11.53
2018-10-16T13:36:31.445Z,8.10
2018-10-16T13:39:00.322Z,13.00
2018-10-16T13:41:29.207Z,13.50
2018-10-16T13:43:58.142Z,10.57
2018-10-16T13:46:26.978Z,18.77
2018-10-16T13:48:55.854Z,8.93
2018-10-16T13:51:24.739Z,11.60
2018-10-16T13:53:54.166Z,8.00
2018-10-16T13:56:23.083Z,12.93
2018-10-16T13:58:52.094Z,11.73
2018-10-16T14:01:21.051Z,11.33
2018-10-16T14:03:49.917Z,9.50
2018-10-16T14:06:18.955Z,14.47
2018-10-16T14:08:47.830Z,9.57
2018-10-16T14:11:16.731Z,8.27
2018-10-16T14:13:45.815Z,10.77
2018-10-16T14:16:14.510Z,8.17
2018-10-16T14:18:43.227Z,8.37
2018-10-16T14:21:12.161Z,11.67
2018-10-16T14:23:40.998Z,7.70
2018-10-16T14:26:10.015Z,10.90
2018-10-16T14:28:38.797Z,13.17
2018-10-16T14:31:07.688Z,8.37
2018-10-16T14:33:36.650Z,10.70
2018-10-16T14:36:05.569Z,9.33
2018-10-16T14:38:34.779Z,12.53
2018-10-16T14:41:03.687Z,10.03
2018-10-16T14:43:32.570Z,10.23
2018-10-16T14:46:02.127Z,12.00
2018-10-16T14:48:30.978Z,10.10
2018-10-16T14:51:00.575Z,8.40
2018-10-16T14:53:30.454Z,7.87
2018-10-16T14:55:59.455Z,8.33
2018-10-16T14:58:28.299Z,9.57
2018-10-16T15:00:57.182Z,9.83
2018-10-16T15:03:26.098Z,12.27
2018-10-16T15:05:54.950Z,15.27
2018-10-16T15:08:23.833Z,10.57
2018-10-16T15:10:52.710Z,9.73
2018-10-16T15:13:21.596Z,11.30
2018-10-16T15:15:50.536Z,9.63
2018-10-16T15:18:19.355Z,8.00
2018-10-16T15:20:48.237Z,12.03
2018-10-16T15:23:17.131Z,11.70
2018-10-16T15:25:46.014Z,10.00
2018-10-16T15:28:14.917Z,12.00
2018-10-16T15:30:44.347Z,14.60
2018-10-16T15:33:13.241Z,12.20
2018-10-16T15:35:42.185Z,9.77
2018-10-16T15:38:11.099Z,11.17
2018-10-16T15:40:39.943Z,9.90
2018-10-16T15:43:08.830Z,10.40
2018-10-16T15:45:37.711Z,11.47
2018-10-16T15:48:06.632Z,11.07
2018-10-16T15:50:35.489Z,11.47
2018-10-16T15:53:04.375Z,14.50
2018-10-16T15:55:33.243Z,10.23
2018-10-16T15:58:02.183Z,12.47
2018-10-16T16:00:31.096Z,15.10
2018-10-16T16:02:59.978Z,9.33
2018-10-16T16:05:28.615Z,15.80
2018-10-16T16:07:57.437Z,16.93
2018-10-16T16:10:26.259Z,14.47
2018-10-16T16:12:55.155Z,14.70
2018-10-16T16:15:24.043Z,18.10
2018-10-16T16:17:52.938Z,15.60
2018-10-16T16:20:21.812Z,12.20
2018-10-16T16:22:50.463Z,14.40
2018-10-16T16:25:19.219Z,18.30
2018-10-16T16:27:48.094Z,17.63
2018-10-16T16:30:16.975Z,12.87
2018-10-16T16:32:45.853Z,15.23
2018-10-16T16:35:14.807Z,14.00
2018-10-16T16:37:43.672Z,14.37
2018-10-16T16:40:13.759Z,13.27
2018-10-16T16:42:42.754Z,11.97
2018-10-16T16:45:12.194Z,17.60
2018-10-16T16:47:41.067Z,14.97
2018-10-16T16:50:10.622Z,13.80
2018-10-16T16:52:39.582Z,13.43
2018-10-16T16:55:09.652Z,21.37
2018-10-16T16:57:38.307Z,19.43
2018-10-16T17:00:09.390Z,17.47
2018-10-16T17:02:38.837Z,16.57
2018-10-16T17:05:08.003Z,19.87
2018-10-16T17:07:37.087Z,17.13
2018-10-16T17:10:06.605Z,19.77
2018-10-16T17:12:35.523Z,15.77
2018-10-16T17:15:04.706Z,20.57
2018-10-16T17:17:33.602Z,24.73
2018-10-16T17:20:02.675Z,21.57
2018-10-16T17:22:31.540Z,16.33
2018-10-16T17:25:00.401Z,18.43
2018-10-16T17:27:28.928Z,18.40
2018-10-16T17:29:57.819Z,18.20
2018-10-16T17:32:26.461Z,20.97
2018-10-16T17:34:55.239Z,15.43
2018-10-16T17:37:24.186Z,18.20
2018-10-16T17:39:53.068Z,15.00
2018-10-16T17:42:22.087Z,15.97
2018-10-16T17:44:50.739Z,15.90
2018-10-16T17:47:19.514Z,14.93
2018-10-16T17:49:48.400Z,14.33
2018-10-16T17:52:17.402Z,13.37
2018-10-16T17:54:46.294Z,16.67
2018-10-16T17:57:14.970Z,14.87
2018-10-16T17:59:43.726Z,16.40
2018-10-16T18:02:12.624Z,14.93
2018-10-16T18:04:41.314Z,14.83
2018-10-16T18:07:10.062Z,15.53
2018-10-16T18:09:38.765Z,13.67
2018-10-16T18:12:07.600Z,17.73
2018-10-16T18:14:36.466Z,15.87
2018-10-16T18:17:05.367Z,16.20
2018-10-16T18:19:35.254Z,16.30
2018-10-16T18:22:04.194Z,16.00
2018-10-16T18:24:32.850Z,14.47
2018-10-16T18:27:01.636Z,17.90
2018-10-16T18:29:30.291Z,21.07
2018-10-16T18:31:58.825Z,18.63
2018-10-16T18:34:27.361Z,19.60
2018-10-16T18:36:56.126Z,18.00
2018-10-16T18:39:25.019Z,16.80
2018-10-16T18:41:53.882Z,21.23
2018-10-16T18:44:22.807Z,21.80
2018-10-16T18:46:51.671Z,16.50
2018-10-16T18:49:20.563Z,17.50
2018-10-16T18:51:49.230Z,22.67
2018-10-16T18:54:17.833Z,19.40
2018-10-16T18:56:46.552Z,19.13
2018-10-16T18:59:15.439Z,18.90
2018-10-16T19:01:44.105Z,17.57
2018-10-16T19:04:12.872Z,20.83
2018-10-16T19:06:42.337Z,15.03
2018-10-16T19:09:12.462Z,16.53
2018-10-16T19:11:41.954Z,20.43
2018-10-16T19:14:10.611Z,20.70
2018-10-16T19:16:39.562Z,17.33
2018-10-16T19:19:08.332Z,21.23
2018-10-16T19:21:37.214Z,17.43
2018-10-16T19:24:06.170Z,19.20
2018-10-16T19:26:34.702Z,17.07
2018-10-16T19:29:03.255Z,21.00
2018-10-16T19:31:32.015Z,15.77
2018-10-16T19:34:00.658Z,17.30
2018-10-16T19:36:29.301Z,16.33
2018-10-16T19:38:58.058Z,16.60
2018-10-16T19:41:26.899Z,15.40
2018-10-16T19:43:55.567Z,16.73
2018-10-16T19:46:24.132Z,20.00
2018-10-16T19:48:52.902Z,17.47
2018-10-16T19:51:21.562Z,15.93
2018-10-16T19:53:50.358Z,17.07
2018-10-16T19:56:19.238Z,14.67
2018-10-16T19:58:47.951Z,18.67
2018-10-16T20:01:16.676Z,17.73
2018-10-16T20:03:45.334Z,18.13
2018-10-16T20:06:14.604Z,16.27
2018-10-16T20:08:43.586Z,19.67
2018-10-16T20:11:12.145Z,17.93
2018-10-16T20:13:40.677Z,16.17
2018-10-16T20:16:09.249Z,18.87
2018-10-16T20:18:37.799Z,19.17
2018-10-16T20:21:06.425Z,20.73
2018-10-16T20:23:35.195Z,17.33
2018-10-16T20:26:03.849Z,19.17
2018-10-16T20:28:32.390Z,17.50
2018-10-16T20:31:00.971Z,21.53
2018-10-16T20:33:29.482Z,21.47
2018-10-16T20:35:58.015Z,20.17
2018-10-16T20:38:26.794Z,19.33
2018-10-16T20:40:56.308Z,15.57
2018-10-16T20:43:25.094Z,17.73
2018-10-16T20:45:53.978Z,17.53
2018-10-16T20:48:22.879Z,16.17
2018-10-16T20:50:51.764Z,15.27
2018-10-16T20:53:20.446Z,16.33
2018-10-16T20:55:49.219Z,14.60
2018-10-16T20:58:17.887Z,15.93
2018-10-16T21:00:46.650Z,16.37
2018-10-16T21:03:15.356Z,16.43
2018-10-16T21:05:44.168Z,15.77
2018-10-16T21:08:12.745Z,16.43
2018-10-16T21:10:41.511Z,14.87
2018-10-16T21:13:10.449Z,15.40
2018-10-16T21:15:39.133Z,15.77
2018-10-16T21:18:07.681Z,20.37
2018-10-16T21:20:36.213Z,16.70
2018-10-16T21:23:04.831Z,17.33
2018-10-16T21:25:33.378Z,16.10
2018-10-16T21:28:01.869Z,16.33
2018-10-16T21:30:30.402Z,15.07
2018-10-16T21:32:59.970Z,15.63
2018-10-16T21:35:28.717Z,14.87
2018-10-16T21:37:57.650Z,15.47
2018-10-16T21:40:26.309Z,15.43
2018-10-16T21:42:55.128Z,16.93
2018-10-16T21:45:24.066Z,14.93
2018-10-16T21:47:52.665Z,13.93
2018-10-16T21:50:21.249Z,13.37
2018-10-16T21:52:49.742Z,15.50
2018-10-16T21:55:18.341Z,17.93
2018-10-16T21:57:46.829Z,15.23
2018-10-16T22:00:20.778Z,16.63
2018-10-16T22:02:50.380Z,14.03
2018-10-16T22:05:22.514Z,14.37
2018-10-16T22:07:52.816Z,20.20
2018-10-16T22:10:21.960Z,12.97
2018-10-16T22:12:50.994Z,15.03
2018-10-16T22:15:20.341Z,14.87
2018-10-16T22:17:49.193Z,19.03
2018-10-16T22:20:17.981Z,12.63
2018-10-16T22:22:47.215Z,11.37
2018-10-16T22:25:15.994Z,14.43
2018-10-16T22:27:44.434Z,12.00
2018-10-16T22:30:13.198Z,11.30
2018-10-16T22:32:41.857Z,13.07
2018-10-16T22:35:11.495Z,12.17
2018-10-16T22:37:40.374Z,13.90
2018-10-16T22:40:09.789Z,12.70
2018-10-16T22:42:38.403Z,14.47
2018-10-16T22:45:07.774Z,12.57
2018-10-16T22:47:36.531Z,15.70
2018-10-16T22:50:09.034Z,15.87
2018-10-16T22:52:37.698Z,13.90
2018-10-16T22:55:06.648Z,14.23
2018-10-16T22:57:35.118Z,11.30
2018-10-16T23:00:04.401Z,13.00
2018-10-16T23:02:33.066Z,13.27
2018-10-16T23:05:01.905Z,14.70
2018-10-16T23:07:30.494Z,11.90
2018-10-16T23:09:59.269Z,12.37
2018-10-16T23:12:28.166Z,13.17
2018-10-16T23:14:57.074Z,15.03
2018-10-16T23:17:25.966Z,13.37
2018-10-16T23:19:54.854Z,12.73
2018-10-16T23:22:23.555Z,13.67
2018-10-16T23:24:52.398Z,12.27
2018-10-16T23:27:21.025Z,12.07
2018-10-16T23:29:49.791Z,13.57
2018-10-16T23:32:18.484Z,14.23
2018-10-16T23:34:47.049Z,12.03
2018-10-16T23:37:15.876Z,14.43
2018-10-16T23:39:44.690Z,11.53
2018-10-16T23:42:13.567Z,12.60
2018-10-16T23:44:42.221Z,14.60
2018-10-16T23:47:10.815Z,15.03
2018-10-16T23:49:39.296Z,14.03
2018-10-16T23:52:08.052Z,16.13
2018-10-16T23:54:36.714Z,13.70
2018-10-16T23:57:05.285Z,12.83
2018-10-16T23:59:33.825Z,13.10
